createdAt,value
2018-11-12T00:00:02.069Z,10.47
2018-11-12T00:02:30.549Z,10.47
2018-11-12T00:04:58.988Z,10.49
2018-11-12T00:07:27.438Z,10.49
2018-11-12T00:09:55.849Z,10.49
2018-11-12T00:12:24.307Z,10.48
2018-11-12T00:14:52.749Z,10.41
2018-11-12T00:17:21.292Z,10.35
2018-11-12T00:19:49.719Z,10.31
2018-11-12T00:22:18.151Z,10.30
2018-11-12T00:24:46.565Z,10.29
2018-11-12T00:27:15.027Z,10.29
2018-11-12T00:29:43.454Z,10.32
2018-11-12T00:32:11.918Z,10.30
2018-11-12T00:34:40.487Z,10.29
2018-11-12T00:37:08.946Z,10.32
2018-11-12T00:39:37.358Z,10.32
2018-11-12T00:42:06.192Z,10.29
2018-11-12T00:44:34.681Z,10.26
2018-11-12T00:47:03.144Z,10.24
2018-11-12T00:49:31.570Z,10.20
2018-11-12T00:52:00.023Z,10.16
2018-11-12T00:54:28.447Z,10.15
2018-11-12T00:56:56.906Z,10.13
2018-11-12T00:59:25.323Z,10.11
2018-11-12T01:01:53.812Z,10.11
2018-11-12T01:04:22.257Z,10.10
2018-11-12T01:06:51.031Z,10.12
2018-11-12T01:09:19.457Z,10.14
2018-11-12T01:11:47.900Z,10.14
2018-11-12T01:14:16.340Z,10.13
2018-11-12T01:16:44.779Z,10.13
2018-11-12T01:19:13.197Z,10.14
2018-11-12T01:21:41.654Z,10.17
2018-11-12T01:24:10.083Z,10.20
2018-11-12T01:26:38.549Z,10.21
2018-11-12T01:29:07.000Z,10.18
2018-11-12T01:31:35.441Z,10.17
2018-11-12T01:34:03.863Z,10.17
2018-11-12T01:36:32.327Z,10.18
2018-11-12T01:39:00.770Z,10.17
2018-11-12T01:41:29.215Z,10.19
2018-11-12T01:43:57.664Z,10.22
2018-11-12T01:46:26.135Z,10.24
2018-11-12T01:48:54.569Z,10.25
2018-11-12T01:51:23.002Z,10.26
2018-11-12T01:53:51.433Z,10.26
2018-11-12T01:56:19.871Z,10.24
2018-11-12T01:58:48.327Z,10.24
2018-11-12T02:01:16.777Z,10.25
2018-11-12T02:03:45.252Z,10.23
2018-11-12T02:06:13.847Z,10.24
2018-11-12T02:08:42.353Z,10.23
2018-11-12T02:11:10.756Z,10.23
2018-11-12T02:13:39.206Z,10.25
2018-11-12T02:16:08.725Z,10.26
2018-11-12T02:18:37.173Z,10.27
2018-11-12T02:21:06.092Z,10.26
2018-11-12T02:23:34.564Z,10.24
2018-11-12T02:26:02.997Z,10.22
2018-11-12T02:28:31.498Z,10.23
2018-11-12T02:30:59.936Z,10.22
2018-11-12T02:33:28.363Z,10.20
2018-11-12T02:35:56.788Z,10.21
2018-11-12T02:38:25.259Z,10.20
2018-11-12T02:40:53.698Z,10.21
2018-11-12T02:43:22.192Z,10.20
2018-11-12T02:45:50.599Z,10.20
2018-11-12T02:48:19.065Z,10.22
2018-11-12T02:50:47.508Z,10.20
2018-11-12T02:53:15.962Z,10.18
2018-11-12T02:55:44.390Z,10.19
2018-11-12T02:58:12.843Z,10.18
2018-11-12T03:00:41.314Z,10.18
2018-11-12T03:03:09.796Z,10.17
2018-11-12T03:05:38.226Z,10.18
2018-11-12T03:08:06.677Z,10.18
2018-11-12T03:10:35.106Z,10.17
2018-11-12T03:13:03.885Z,10.16
2018-11-12T03:15:32.284Z,10.15
2018-11-12T03:18:00.724Z,10.15
2018-11-12T03:20:29.133Z,10.13
2018-11-12T03:22:57.595Z,10.10
2018-11-12T03:25:26.025Z,10.08
2018-11-12T03:27:54.600Z,10.07
2018-11-12T03:30:23.600Z,10.02
2018-11-12T03:32:52.957Z,9.99
2018-11-12T03:35:21.485Z,9.94
2018-11-12T03:37:50.733Z,9.90
2018-11-12T03:40:21.137Z,9.85
2018-11-12T03:42:50.179Z,9.80
2018-11-12T03:45:19.837Z,9.76
2018-11-12T03:47:48.371Z,9.74
2018-11-12T03:50:18.057Z,9.73
2018-11-12T03:52:46.606Z,9.73
2018-11-12T03:55:16.426Z,9.71
2018-11-12T03:57:44.860Z,9.69
2018-11-12T04:00:15.359Z,9.66
2018-11-12T04:02:44.037Z,9.64
2018-11-12T04:05:12.476Z,9.65
2018-11-12T04:07:41.352Z,9.68
2018-11-12T04:10:11.812Z,9.71
2018-11-12T04:12:40.251Z,9.76
2018-11-12T04:15:11.469Z,9.78
2018-11-12T04:17:39.969Z,9.80
2018-11-12T04:20:10.014Z,9.81
2018-11-12T04:22:38.790Z,9.83
2018-11-12T04:25:08.361Z,9.82
2018-11-12T04:27:36.868Z,9.82
2018-11-12T04:30:08.389Z,9.80
2018-11-12T04:32:36.818Z,9.78
2018-11-12T04:35:05.614Z,9.76
2018-11-12T04:37:34.061Z,9.76
2018-11-12T04:40:02.729Z,9.76
2018-11-12T04:42:31.160Z,9.76
2018-11-12T04:44:59.601Z,9.74
2018-11-12T04:47:28.066Z,9.69
2018-11-12T04:49:57.035Z,9.65
2018-11-12T04:52:25.995Z,9.61
2018-11-12T04:54:54.963Z,9.58
2018-11-12T04:57:23.422Z,9.56
2018-11-12T04:59:51.909Z,9.52
2018-11-12T05:02:20.381Z,9.50
2018-11-12T05:04:48.858Z,9.46
2018-11-12T05:07:17.311Z,9.42
2018-11-12T05:09:45.737Z,9.40
2018-11-12T05:12:14.158Z,9.36
2018-11-12T05:14:42.602Z,9.33
2018-11-12T05:17:11.035Z,9.29
2018-11-12T05:19:39.468Z,9.32
2018-11-12T05:22:07.926Z,9.31
2018-11-12T05:24:36.370Z,9.28
2018-11-12T05:27:04.795Z,9.25
2018-11-12T05:29:33.245Z,9.25
2018-11-12T05:32:01.673Z,9.25
2018-11-12T05:34:30.125Z,9.25
2018-11-12T05:36:58.593Z,9.29
2018-11-12T05:39:27.035Z,9.30
2018-11-12T05:41:55.502Z,9.33
2018-11-12T05:44:23.939Z,9.32
2018-11-12T05:46:52.384Z,9.31
2018-11-12T05:49:20.832Z,9.31
2018-11-12T05:51:49.262Z,9.31
2018-11-12T05:54:17.721Z,9.30
2018-11-12T05:56:46.154Z,9.31
2018-11-12T05:59:14.592Z,9.30
2018-11-12T06:01:43.041Z,9.31
2018-11-12T06:04:11.519Z,9.28
2018-11-12T06:06:39.954Z,9.27
2018-11-12T06:09:10.270Z,9.22
2018-11-12T06:11:39.014Z,9.18
2018-11-12T06:14:07.790Z,9.14
2018-11-12T06:16:36.269Z,9.12
2018-11-12T06:19:04.774Z,9.11
2018-11-12T06:21:33.225Z,9.12
2018-11-12T06:24:01.663Z,9.12
2018-11-12T06:26:30.104Z,9.13
2018-11-12T06:28:58.525Z,9.14
2018-11-12T06:31:26.981Z,9.16
2018-11-12T06:33:55.394Z,9.19
2018-11-12T06:36:23.840Z,9.20
2018-11-12T06:38:52.668Z,9.22
2018-11-12T06:41:21.125Z,9.21
2018-11-12T06:43:49.538Z,9.18
2018-11-12T06:46:17.986Z,9.17
2018-11-12T06:48:46.413Z,9.19
2018-11-12T06:51:14.902Z,9.20
2018-11-12T06:53:43.334Z,9.22
2018-11-12T06:56:11.777Z,9.26
2018-11-12T06:58:40.211Z,9.30
2018-11-12T07:01:08.684Z,9.34
2018-11-12T07:03:37.130Z,9.39
2018-11-12T07:06:05.802Z,9.44
2018-11-12T07:08:34.308Z,9.51
2018-11-12T07:11:02.758Z,9.58
2018-11-12T07:13:31.205Z,9.63
2018-11-12T07:15:59.702Z,9.66
2018-11-12T07:18:28.137Z,9.68
2018-11-12T07:20:56.581Z,9.65
2018-11-12T07:23:25.017Z,9.65
2018-11-12T07:25:53.480Z,9.69
2018-11-12T07:28:21.890Z,9.70
2018-11-12T07:30:50.439Z,9.73
2018-11-12T07:33:18.808Z,9.73
2018-11-12T07:35:47.253Z,9.74
2018-11-12T07:38:15.674Z,9.76
2018-11-12T07:40:44.120Z,9.80
2018-11-12T07:43:12.532Z,9.82
2018-11-12T07:45:40.994Z,9.83
2018-11-12T07:48:09.429Z,9.83
2018-11-12T07:50:37.885Z,9.85
2018-11-12T07:53:06.371Z,9.87
2018-11-12T07:55:34.814Z,9.91
2018-11-12T07:58:03.239Z,9.94
2018-11-12T08:00:33.142Z,10.01
2018-11-12T08:03:11.017Z,10.07
2018-11-12T08:05:40.060Z,10.11
2018-11-12T08:08:08.937Z,10.16
2018-11-12T08:10:37.392Z,10.19
2018-11-12T08:13:06.301Z,10.22
2018-11-12T08:15:34.733Z,10.25
2018-11-12T08:18:03.206Z,10.27
2018-11-12T08:20:31.641Z,10.28
2018-11-12T08:23:00.101Z,10.31
2018-11-12T08:25:28.519Z,10.34
2018-11-12T08:27:56.976Z,10.36
2018-11-12T08:30:26.823Z,10.37
2018-11-12T08:32:56.736Z,10.37
2018-11-12T08:35:25.252Z,10.36
2018-11-12T08:37:54.152Z,10.36
2018-11-12T08:40:24.112Z,10.35
2018-11-12T08:42:52.466Z,10.37
2018-11-12T08:45:20.926Z,10.37
2018-11-12T08:47:50.711Z,10.40
2018-11-12T08:50:20.536Z,10.38
2018-11-12T08:52:49.869Z,10.39
2018-11-12T08:55:19.539Z,10.37
2018-11-12T08:57:55.732Z,10.32
2018-11-12T09:00:25.054Z,10.28
2018-11-12T09:02:53.602Z,10.27
2018-11-12T09:05:23.386Z,10.27
2018-11-12T09:07:53.446Z,10.29
2018-11-12T09:10:23.982Z,10.31
2018-11-12T09:12:52.615Z,10.32
2018-11-12T09:15:21.101Z,10.35
2018-11-12T09:17:50.101Z,10.36
2018-11-12T09:20:22.776Z,10.38
2018-11-12T09:22:51.264Z,10.40
2018-11-12T09:25:20.835Z,10.39
2018-11-12T09:27:49.322Z,10.39
2018-11-12T09:30:22.425Z,10.40
2018-11-12T09:32:50.957Z,10.40
2018-11-12T09:35:21.578Z,10.42
2018-11-12T09:37:51.026Z,10.41
2018-11-12T09:40:21.716Z,10.37
2018-11-12T09:42:50.379Z,10.36
2018-11-12T09:45:18.812Z,10.35
2018-11-12T09:47:47.575Z,10.35
2018-11-12T09:50:17.461Z,10.33
2018-11-12T09:52:47.126Z,10.30
2018-11-12T09:55:16.413Z,10.29
2018-11-12T09:57:46.440Z,10.27
2018-11-12T10:00:16.600Z,10.27
2018-11-12T10:02:46.772Z,10.27
2018-11-12T10:05:16.754Z,10.32
2018-11-12T10:07:46.324Z,10.36
2018-11-12T10:10:33.776Z,10.43
2018-11-12T10:13:01.654Z,10.48
2018-11-12T10:15:31.363Z,10.51
2018-11-12T10:17:59.907Z,10.47
2018-11-12T10:20:25.360Z,10.44
2018-11-12T10:22:53.819Z,10.42
2018-11-12T10:25:22.248Z,10.45
2018-11-12T10:27:51.102Z,10.47
2018-11-12T10:30:20.684Z,10.46
2018-11-12T10:32:49.138Z,10.46
2018-11-12T10:35:17.614Z,10.45
2018-11-12T10:37:46.069Z,10.43
2018-11-12T10:40:17.124Z,10.43
2018-11-12T10:42:46.121Z,10.43
2018-11-12T10:45:14.959Z,10.47
2018-11-12T10:47:43.723Z,10.48
2018-11-12T10:50:12.231Z,10.48
2018-11-12T10:52:40.697Z,10.49
2018-11-12T10:55:12.416Z,10.51
2018-11-12T10:57:41.249Z,10.54
2018-11-12T11:00:20.827Z,10.61
2018-11-12T11:02:54.536Z,10.70
2018-11-12T11:05:23.218Z,10.80
2018-11-12T11:07:52.531Z,10.88
2018-11-12T11:10:22.297Z,10.90
2018-11-12T11:12:50.725Z,10.95
2018-11-12T11:15:19.216Z,11.00
2018-11-12T11:17:48.096Z,10.98
2018-11-12T11:20:16.808Z,10.97
2018-11-12T11:22:45.342Z,10.95
2018-11-12T11:25:13.783Z,10.95
2018-11-12T11:27:42.235Z,10.97
2018-11-12T11:30:12.885Z,11.00
2018-11-12T11:32:41.646Z,10.97
2018-11-12T11:35:10.769Z,10.91
2018-11-12T11:37:39.247Z,10.90
2018-11-12T11:40:12.384Z,10.94
2018-11-12T11:42:41.161Z,11.01
2018-11-12T11:45:10.710Z,11.10
2018-11-12T11:47:39.795Z,11.16
2018-11-12T11:50:09.615Z,11.22
2018-11-12T11:52:37.962Z,11.28
2018-11-12T11:55:09.664Z,11.37
2018-11-12T11:57:38.295Z,11.43
2018-11-12T12:00:10.038Z,11.42
2018-11-12T12:02:38.497Z,11.40
2018-11-12T12:05:08.220Z,11.38
2018-11-12T12:07:36.775Z,11.40
2018-11-12T12:10:05.416Z,11.35
2018-11-12T12:12:33.828Z,11.35
2018-11-12T12:15:02.857Z,11.38
2018-11-12T12:17:31.295Z,11.42
2018-11-12T12:19:59.780Z,11.56
2018-11-12T12:22:28.432Z,11.72
2018-11-12T12:24:56.994Z,11.89
2018-11-12T12:27:25.371Z,12.06
2018-11-12T12:29:53.844Z,12.08
2018-11-12T12:32:22.261Z,12.06
2018-11-12T12:34:50.753Z,11.97
2018-11-12T12:37:19.184Z,11.97
2018-11-12T12:39:47.611Z,12.00
2018-11-12T12:42:16.073Z,11.93
2018-11-12T12:44:44.592Z,11.82
2018-11-12T12:47:12.956Z,11.81
2018-11-12T12:49:41.512Z,11.86
2018-11-12T12:52:09.829Z,11.94
2018-11-12T12:54:38.241Z,12.09
2018-11-12T12:57:06.749Z,12.33
2018-11-12T12:59:35.175Z,12.48
2018-11-12T13:02:03.682Z,12.48
2018-11-12T13:04:32.141Z,12.48
2018-11-12T13:07:00.588Z,12.46
2018-11-12T13:09:29.017Z,12.42
2018-11-12T13:11:57.485Z,12.36
2018-11-12T13:14:25.973Z,12.37
2018-11-12T13:16:54.414Z,12.52
2018-11-12T13:19:22.886Z,12.59
2018-11-12T13:21:51.344Z,12.63
2018-11-12T13:24:19.774Z,12.63
2018-11-12T13:26:48.205Z,12.66
2018-11-12T13:29:16.606Z,12.74
2018-11-12T13:31:45.071Z,12.72
2018-11-12T13:34:13.509Z,12.72
2018-11-12T13:36:41.969Z,12.77
2018-11-12T13:39:11.994Z,12.81
2018-11-12T13:41:40.680Z,12.79
2018-11-12T13:44:09.117Z,12.72
2018-11-12T13:46:43.101Z,12.70
2018-11-12T13:49:11.580Z,12.70
2018-11-12T13:51:40.011Z,12.67
2018-11-12T13:54:09.329Z,12.65
2018-11-12T13:56:38.019Z,12.64
2018-11-12T13:59:06.640Z,12.68
2018-11-12T14:01:35.083Z,12.69
2018-11-12T14:04:03.540Z,12.69
2018-11-12T14:06:31.967Z,12.69
2018-11-12T14:09:00.452Z,12.69
2018-11-12T14:11:28.884Z,12.72
2018-11-12T14:13:57.433Z,12.74
2018-11-12T14:16:25.803Z,12.73
2018-11-12T14:18:54.252Z,12.75
2018-11-12T14:21:22.886Z,12.77
2018-11-12T14:23:51.170Z,12.81
2018-11-12T14:26:19.607Z,12.83
2018-11-12T14:28:48.145Z,12.84
2018-11-12T14:31:16.549Z,12.89
2018-11-12T14:33:45.012Z,12.93
2018-11-12T14:36:13.518Z,12.96
2018-11-12T14:38:41.902Z,12.98
2018-11-12T14:41:10.328Z,12.99
2018-11-12T14:43:38.793Z,13.00
2018-11-12T14:46:07.216Z,13.01
2018-11-12T14:48:35.645Z,12.99
2018-11-12T14:51:04.114Z,12.95
2018-11-12T14:53:32.581Z,12.87
2018-11-12T14:56:00.999Z,12.83
2018-11-12T14:58:29.411Z,12.78
2018-11-12T15:00:57.882Z,12.76
2018-11-12T15:03:26.349Z,12.73
2018-11-12T15:05:54.796Z,12.73
2018-11-12T15:08:23.233Z,12.79
2018-11-12T15:10:51.693Z,12.85
2018-11-12T15:13:20.103Z,12.88
2018-11-12T15:15:48.553Z,12.88
2018-11-12T15:18:16.984Z,12.85
2018-11-12T15:20:45.425Z,12.88
2018-11-12T15:23:13.829Z,12.88
2018-11-12T15:25:42.273Z,12.83
2018-11-12T15:28:10.699Z,12.81
2018-11-12T15:30:39.197Z,12.84
2018-11-12T15:33:07.622Z,12.88
2018-11-12T15:35:36.051Z,12.93
2018-11-12T15:38:04.485Z,13.02
2018-11-12T15:40:32.951Z,12.98
2018-11-12T15:43:01.386Z,12.94
2018-11-12T15:45:29.909Z,12.87
2018-11-12T15:47:58.319Z,12.79
2018-11-12T15:50:31.115Z,12.76
2018-11-12T15:52:59.520Z,12.77
2018-11-12T15:55:27.973Z,12.78
2018-11-12T15:57:56.604Z,12.67
2018-11-12T16:00:24.917Z,12.62
2018-11-12T16:02:53.346Z,12.73
2018-11-12T16:05:21.817Z,12.60
2018-11-12T16:07:50.244Z,12.54
2018-11-12T16:10:20.116Z,12.61
2018-11-12T16:12:48.585Z,12.73
2018-11-12T16:15:18.340Z,12.63
2018-11-12T16:17:46.779Z,12.61
2018-11-12T16:20:23.476Z,12.46
2018-11-12T16:22:52.352Z,12.33
2018-11-12T16:25:21.236Z,12.34
2018-11-12T16:27:49.681Z,12.31
2018-11-12T16:30:18.109Z,12.37
2018-11-12T16:32:47.020Z,12.35
2018-11-12T16:35:17.209Z,12.71
2018-11-12T16:37:46.472Z,12.79
2018-11-12T16:40:14.933Z,12.75
2018-11-12T16:42:44.371Z,12.69
2018-11-12T16:45:13.756Z,12.76
2018-11-12T16:47:42.250Z,12.68
2018-11-12T16:50:11.770Z,12.60
2018-11-12T16:52:40.223Z,12.55
2018-11-12T16:55:10.816Z,12.62
2018-11-12T16:57:39.248Z,12.67
2018-11-12T17:00:09.248Z,12.68
2018-11-12T17:02:37.713Z,12.57
2018-11-12T17:05:07.693Z,12.52
2018-11-12T17:07:36.152Z,12.57
2018-11-12T17:10:05.181Z,12.59
2018-11-12T17:12:33.619Z,12.62
2018-11-12T17:15:02.035Z,12.62
2018-11-12T17:17:31.639Z,12.69
2018-11-12T17:20:00.075Z,12.63
2018-11-12T17:22:28.528Z,12.60
2018-11-12T17:24:56.963Z,12.53
2018-11-12T17:27:25.485Z,12.46
2018-11-12T17:29:53.910Z,12.47
2018-11-12T17:32:22.351Z,12.47
2018-11-12T17:34:50.772Z,12.48
2018-11-12T17:37:19.193Z,12.46
2018-11-12T17:39:47.626Z,12.55
2018-11-12T17:42:16.045Z,12.70
2018-11-12T17:44:44.468Z,12.77
2018-11-12T17:47:12.910Z,12.78
2018-11-12T17:49:41.325Z,12.71
2018-11-12T17:52:09.729Z,12.64
2018-11-12T17:54:38.317Z,12.59
2018-11-12T17:57:06.611Z,12.58
2018-11-12T17:59:35.058Z,12.57
2018-11-12T18:02:03.540Z,12.60
2018-11-12T18:04:31.980Z,12.65
2018-11-12T18:07:00.674Z,12.67
2018-11-12T18:09:29.077Z,12.70
2018-11-12T18:11:57.541Z,12.78
2018-11-12T18:14:25.988Z,12.83
2018-11-12T18:16:54.384Z,12.93
2018-11-12T18:19:22.801Z,13.02
2018-11-12T18:21:51.205Z,13.03
2018-11-12T18:24:19.628Z,13.03
2018-11-12T18:26:48.041Z,13.02
2018-11-12T18:29:16.481Z,13.11
2018-11-12T18:31:45.137Z,13.19
2018-11-12T18:34:13.312Z,13.20
2018-11-12T18:36:41.730Z,13.23
2018-11-12T18:39:10.813Z,13.18
2018-11-12T18:41:39.221Z,13.20
2018-11-12T18:44:07.644Z,13.19
2018-11-12T18:46:36.056Z,13.17
2018-11-12T18:49:04.754Z,13.10
2018-11-12T18:51:33.172Z,13.07
2018-11-12T18:54:01.617Z,13.03
2018-11-12T18:56:30.032Z,12.97
2018-11-12T18:58:58.472Z,12.96
2018-11-12T19:01:26.891Z,13.03
2018-11-12T19:03:55.344Z,13.08
2018-11-12T19:06:23.741Z,13.07
2018-11-12T19:08:52.178Z,13.07
2018-11-12T19:11:20.585Z,13.06
2018-11-12T19:13:49.041Z,13.07
2018-11-12T19:16:17.443Z,13.00
2018-11-12T19:18:45.873Z,12.97
2018-11-12T19:21:14.335Z,12.91
2018-11-12T19:23:42.747Z,12.89
2018-11-12T19:26:11.144Z,12.88
2018-11-12T19:28:39.589Z,12.85
2018-11-12T19:31:07.996Z,12.81
2018-11-12T19:33:36.438Z,12.78
2018-11-12T19:36:04.859Z,12.73
2018-11-12T19:38:33.305Z,12.73
2018-11-12T19:41:01.780Z,12.70
2018-11-12T19:43:30.212Z,12.61
2018-11-12T19:45:58.629Z,12.54
2018-11-12T19:48:27.051Z,12.48
2018-11-12T19:50:55.501Z,12.41
2018-11-12T19:53:23.911Z,12.34
2018-11-12T19:55:52.373Z,12.28
2018-11-12T19:58:20.789Z,12.23
2018-11-12T20:00:49.233Z,12.19
2018-11-12T20:03:17.676Z,12.12
2018-11-12T20:05:46.141Z,12.04
2018-11-12T20:08:14.638Z,11.94
2018-11-12T20:10:43.024Z,11.81
2018-11-12T20:13:11.451Z,11.73
2018-11-12T20:15:39.944Z,11.65
2018-11-12T20:18:08.349Z,11.57
2018-11-12T20:20:36.790Z,11.53
2018-11-12T20:23:05.252Z,11.49
2018-11-12T20:25:33.716Z,11.44
2018-11-12T20:28:02.146Z,11.41
2018-11-12T20:30:33.480Z,11.40
2018-11-12T20:33:01.914Z,11.38
2018-11-12T20:35:30.356Z,11.35
2018-11-12T20:37:58.784Z,11.30
2018-11-12T20:40:27.289Z,11.26
2018-11-12T20:42:55.717Z,11.23
2018-11-12T20:45:24.496Z,11.17
2018-11-12T20:47:54.216Z,11.12
2018-11-12T20:50:23.820Z,11.11
2018-11-12T20:52:52.236Z,11.10
2018-11-12T20:55:20.799Z,11.13
2018-11-12T20:57:49.210Z,11.13
2018-11-12T21:00:21.362Z,11.10
2018-11-12T21:02:50.843Z,11.07
2018-11-12T21:05:21.208Z,11.05
2018-11-12T21:07:49.652Z,11.04
2018-11-12T21:10:19.092Z,11.02
2018-11-12T21:12:49.959Z,11.01
2018-11-12T21:15:19.401Z,10.99
2018-11-12T21:17:47.845Z,10.95
2018-11-12T21:20:18.760Z,10.91
2018-11-12T21:22:47.200Z,10.89
2018-11-12T21:25:16.986Z,10.88
2018-11-12T21:27:45.491Z,10.88
2018-11-12T21:30:16.440Z,10.88
2018-11-12T21:32:45.114Z,10.88
2018-11-12T21:35:13.574Z,10.85
2018-11-12T21:37:42.058Z,10.85
2018-11-12T21:40:13.917Z,10.86
2018-11-12T21:42:42.354Z,10.85
2018-11-12T21:45:12.349Z,10.86
2018-11-12T21:47:41.754Z,10.88
2018-11-12T21:50:12.408Z,10.89
2018-11-12T21:52:40.792Z,10.89
2018-11-12T21:55:10.333Z,10.86
2018-11-12T21:57:39.015Z,10.86
2018-11-12T22:00:16.186Z,10.85
2018-11-12T22:02:45.735Z,10.85
2018-11-12T22:05:14.277Z,10.82
2018-11-12T22:07:42.696Z,10.81
2018-11-12T22:10:12.997Z,10.80
2018-11-12T22:12:42.455Z,10.81
2018-11-12T22:15:11.364Z,10.81
2018-11-12T22:17:39.886Z,10.81
2018-11-12T22:20:10.087Z,10.81
2018-11-12T22:22:39.279Z,10.78
2018-11-12T22:25:09.188Z,10.77
2018-11-12T22:27:37.761Z,10.76
2018-11-12T22:30:07.104Z,10.76
2018-11-12T22:32:35.550Z,10.77
2018-11-12T22:35:04.213Z,10.75
2018-11-12T22:37:32.721Z,10.74
2018-11-12T22:40:01.111Z,10.73
2018-11-12T22:42:29.632Z,10.74
2018-11-12T22:44:58.144Z,10.73
2018-11-12T22:47:26.663Z,10.72
2018-11-12T22:49:55.092Z,10.70
2018-11-12T22:52:23.532Z,10.68
2018-11-12T22:54:51.937Z,10.68
2018-11-12T22:57:20.449Z,10.62
2018-11-12T22:59:48.890Z,10.53
2018-11-12T23:02:17.356Z,10.43
2018-11-12T23:04:45.779Z,10.32
2018-11-12T23:07:14.229Z,10.24
2018-11-12T23:09:42.659Z,10.18
2018-11-12T23:12:11.115Z,10.10
2018-11-12T23:14:39.562Z,10.03
2018-11-12T23:17:08.178Z,10.04
2018-11-12T23:19:36.634Z,10.09
2018-11-12T23:22:05.430Z,10.12
2018-11-12T23:24:33.865Z,10.10
2018-11-12T23:27:02.335Z,10.05
2018-11-12T23:29:30.783Z,9.95
2018-11-12T23:31:59.279Z,9.87
2018-11-12T23:34:27.694Z,9.81
2018-11-12T23:36:56.141Z,9.71
2018-11-12T23:39:24.588Z,9.65
2018-11-12T23:41:53.060Z,9.62
2018-11-12T23:44:21.491Z,9.60
2018-11-12T23:46:49.948Z,9.61
2018-11-12T23:49:18.424Z,9.59
2018-11-12T23:51:46.871Z,9.56
2018-11-12T23:54:15.299Z,9.54
2018-11-12T23:56:43.728Z,9.51
2018-11-12T23:59:12.143Z,9.47
